sensor_id;sensor_type;location;lat;lon;timestamp;P1;durP1;ratioP1;P2;durP2;ratioP2
66751;SDS011;53663;42.676;23.238;2022-12-07T00:02:22;43.30;;;19.40;;
66751;SDS011;53663;42.676;23.238;2022-12-07T00:04:48;39.30;;;19.42;;
66751;SDS011;53663;42.676;23.238;2022-12-07T00:07:14;36.15;;;18.92;;
66751;SDS011;53663;42.676;23.238;2022-12-07T00:09:40;36.83;;;18.35;;
66751;SDS011;53663;42.676;23.238;2022-12-07T00:12:06;34.85;;;17.80;;
66751;SDS011;53663;42.676;23.238;2022-12-07T00:14:32;38.30;;;19.80;;
66751;SDS011;53663;42.676;23.238;2022-12-07T00:16:57;37.30;;;18.00;;
66751;SDS011;53663;42.676;23.238;2022-12-07T00:19:23;43.38;;;21.38;;
66751;SDS011;53663;42.676;23.238;2022-12-07T00:21:48;40.00;;;20.77;;
66751;SDS011;53663;42.676;23.238;2022-12-07T00:24:14;47.60;;;20.40;;
66751;SDS011;53663;42.676;23.238;2022-12-07T00:26:40;41.28;;;19.05;;
66751;SDS011;53663;42.676;23.238;2022-12-07T00:29:17;55.75;;;20.13;;
66751;SDS011;53663;42.676;23.238;2022-12-07T00:31:44;38.05;;;19.27;;
66751;SDS011;53663;42.676;23.238;2022-12-07T00:34:16;48.83;;;20.05;;
66751;SDS011;53663;42.676;23.238;2022-12-07T00:36:43;39.58;;;19.35;;
66751;SDS011;53663;42.676;23.238;2022-12-07T00:39:09;42.83;;;19.45;;
66751;SDS011;53663;42.676;23.238;2022-12-07T00:41:34;43.45;;;18.58;;
66751;SDS011;53663;42.676;23.238;2022-12-07T00:44:00;32.58;;;16.85;;
66751;SDS011;53663;42.676;23.238;2022-12-07T00:46:25;44.15;;;19.27;;
66751;SDS011;53663;42.676;23.238;2022-12-07T00:48:51;45.15;;;19.58;;
66751;SDS011;53663;42.676;23.238;2022-12-07T00:51:19;40.67;;;19.27;;
66751;SDS011;53663;42.676;23.238;2022-12-07T00:53:46;45.15;;;20.13;;
66751;SDS011;53663;42.676;23.238;2022-12-07T00:56:13;43.85;;;19.42;;
66751;SDS011;53663;42.676;23.238;2022-12-07T00:58:59;42.58;;;18.55;;
66751;SDS011;53663;42.676;23.238;2022-12-07T01:01:27;38.65;;;18.20;;
66751;SDS011;53663;42.676;23.238;2022-12-07T01:03:54;41.00;;;19.38;;
66751;SDS011;53663;42.676;23.238;2022-12-07T01:06:20;37.80;;;17.85;;
66751;SDS011;53663;42.676;23.238;2022-12-07T01:08:47;35.38;;;17.30;;
66751;SDS011;53663;42.676;23.238;2022-12-07T01:11:14;33.88;;;18.17;;
66751;SDS011;53663;42.676;23.238;2022-12-07T01:13:41;35.53;;;16.85;;
66751;SDS011;53663;42.676;23.238;2022-12-07T01:16:07;33.83;;;17.73;;
66751;SDS011;53663;42.676;23.238;2022-12-07T01:18:35;34.15;;;17.48;;
66751;SDS011;53663;42.676;23.238;2022-12-07T01:21:02;35.53;;;18.00;;
66751;SDS011;53663;42.676;23.238;2022-12-07T01:23:30;36.00;;;16.88;;
66751;SDS011;53663;42.676;23.238;2022-12-07T01:25:56;41.25;;;17.45;;
66751;SDS011;53663;42.676;23.238;2022-12-07T01:28:23;45.22;;;17.73;;
66751;SDS011;53663;42.676;23.238;2022-12-07T01:31:02;35.63;;;17.45;;
66751;SDS011;53663;42.676;23.238;2022-12-07T01:33:30;35.53;;;17.52;;
66751;SDS011;53663;42.676;23.238;2022-12-07T01:38:49;33.00;;;17.35;;
66751;SDS011;53663;42.676;23.238;2022-12-07T01:41:17;37.85;;;18.27;;
66751;SDS011;53663;42.676;23.238;2022-12-07T01:46:31;32.05;;;17.67;;
66751;SDS011;53663;42.676;23.238;2022-12-07T01:48:56;30.00;;;16.40;;
66751;SDS011;53663;42.676;23.238;2022-12-07T01:51:22;29.30;;;16.60;;
66751;SDS011;53663;42.676;23.238;2022-12-07T01:53:47;33.08;;;17.85;;
66751;SDS011;53663;42.676;23.238;2022-12-07T01:56:15;32.97;;;17.40;;
66751;SDS011;53663;42.676;23.238;2022-12-07T01:58:44;31.08;;;16.98;;
66751;SDS011;53663;42.676;23.238;2022-12-07T02:01:10;31.77;;;17.13;;
66751;SDS011;53663;42.676;23.238;2022-12-07T02:03:40;32.83;;;17.75;;
66751;SDS011;53663;42.676;23.238;2022-12-07T02:06:07;37.67;;;16.83;;
66751;SDS011;53663;42.676;23.238;2022-12-07T02:08:36;38.67;;;17.15;;
66751;SDS011;53663;42.676;23.238;2022-12-07T02:11:03;40.85;;;17.48;;
66751;SDS011;53663;42.676;23.238;2022-12-07T02:13:31;29.65;;;16.67;;
66751;SDS011;53663;42.676;23.238;2022-12-07T02:19:05;33.05;;;17.45;;
66751;SDS011;53663;42.676;23.238;2022-12-07T02:21:51;31.92;;;15.98;;
66751;SDS011;53663;42.676;23.238;2022-12-07T02:24:31;31.98;;;16.70;;
66751;SDS011;53663;42.676;23.238;2022-12-07T02:30:07;33.88;;;16.50;;
66751;SDS011;53663;42.676;23.238;2022-12-07T02:32:56;39.53;;;18.00;;
66751;SDS011;53663;42.676;23.238;2022-12-07T02:35:30;30.92;;;15.90;;
66751;SDS011;53663;42.676;23.238;2022-12-07T02:38:17;32.90;;;17.38;;
66751;SDS011;53663;42.676;23.238;2022-12-07T02:40:47;41.67;;;18.92;;
66751;SDS011;53663;42.676;23.238;2022-12-07T02:43:24;36.13;;;18.33;;
66751;SDS011;53663;42.676;23.238;2022-12-07T02:45:54;32.35;;;17.38;;
66751;SDS011;53663;42.676;23.238;2022-12-07T02:48:23;31.30;;;17.15;;
66751;SDS011;53663;42.676;23.238;2022-12-07T02:50:50;50.58;;;29.58;;
66751;SDS011;53663;42.676;23.238;2022-12-07T02:53:30;44.22;;;25.60;;
66751;SDS011;53663;42.676;23.238;2022-12-07T02:56:05;40.15;;;23.25;;
66751;SDS011;53663;42.676;23.238;2022-12-07T02:58:35;48.88;;;25.67;;
66751;SDS011;53663;42.676;23.238;2022-12-07T03:01:26;35.88;;;19.38;;
66751;SDS011;53663;42.676;23.238;2022-12-07T03:06:28;35.28;;;17.55;;
66751;SDS011;53663;42.676;23.238;2022-12-07T03:09:03;31.60;;;16.42;;
66751;SDS011;53663;42.676;23.238;2022-12-07T03:11:45;36.53;;;17.08;;
66751;SDS011;53663;42.676;23.238;2022-12-07T03:14:19;36.67;;;17.80;;
66751;SDS011;53663;42.676;23.238;2022-12-07T03:16:52;32.03;;;17.30;;
66751;SDS011;53663;42.676;23.238;2022-12-07T03:19:30;35.17;;;17.65;;
66751;SDS011;53663;42.676;23.238;2022-12-07T03:22:02;30.60;;;17.10;;
66751;SDS011;53663;42.676;23.238;2022-12-07T03:24:33;33.70;;;17.42;;
66751;SDS011;53663;42.676;23.238;2022-12-07T03:27:06;34.60;;;17.67;;
66751;SDS011;53663;42.676;23.238;2022-12-07T03:29:38;34.03;;;16.38;;
66751;SDS011;53663;42.676;23.238;2022-12-07T03:32:15;36.00;;;17.35;;
66751;SDS011;53663;42.676;23.238;2022-12-07T03:34:59;32.72;;;17.17;;
66751;SDS011;53663;42.676;23.238;2022-12-07T03:37:33;32.33;;;15.85;;
66751;SDS011;53663;42.676;23.238;2022-12-07T03:42:31;38.22;;;16.98;;
66751;SDS011;53663;42.676;23.238;2022-12-07T03:44:58;29.90;;;16.83;;
66751;SDS011;53663;42.676;23.238;2022-12-07T03:47:38;25.92;;;16.17;;
66751;SDS011;53663;42.676;23.238;2022-12-07T03:50:35;33.83;;;16.13;;
66751;SDS011;53663;42.676;23.238;2022-12-07T03:53:15;31.23;;;15.98;;
66751;SDS011;53663;42.676;23.238;2022-12-07T03:55:48;34.80;;;17.75;;
66751;SDS011;53663;42.676;23.238;2022-12-07T03:58:16;35.42;;;18.05;;
66751;SDS011;53663;42.676;23.238;2022-12-07T04:00:44;33.50;;;17.38;;
66751;SDS011;53663;42.676;23.238;2022-12-07T04:03:10;30.17;;;17.13;;
66751;SDS011;53663;42.676;23.238;2022-12-07T04:05:36;29.55;;;16.48;;
66751;SDS011;53663;42.676;23.238;2022-12-07T04:08:03;37.67;;;17.67;;
66751;SDS011;53663;42.676;23.238;2022-12-07T04:10:28;38.38;;;17.67;;
66751;SDS011;53663;42.676;23.238;2022-12-07T04:12:54;33.70;;;17.65;;
66751;SDS011;53663;42.676;23.238;2022-12-07T04:15:20;33.88;;;17.38;;
66751;SDS011;53663;42.676;23.238;2022-12-07T04:17:46;35.53;;;17.92;;
66751;SDS011;53663;42.676;23.238;2022-12-07T04:20:11;35.10;;;17.92;;
66751;SDS011;53663;42.676;23.238;2022-12-07T04:22:37;42.65;;;18.10;;
66751;SDS011;53663;42.676;23.238;2022-12-07T04:25:03;30.75;;;16.95;;
66751;SDS011;53663;42.676;23.238;2022-12-07T04:27:29;32.65;;;18.23;;
66751;SDS011;53663;42.676;23.238;2022-12-07T04:29:54;36.53;;;18.00;;
66751;SDS011;53663;42.676;23.238;2022-12-07T04:32:21;38.25;;;18.40;;
66751;SDS011;53663;42.676;23.238;2022-12-07T04:34:47;29.52;;;17.90;;
66751;SDS011;53663;42.676;23.238;2022-12-07T04:37:12;33.38;;;17.58;;
66751;SDS011;53663;42.676;23.238;2022-12-07T04:39:38;34.28;;;17.67;;
66751;SDS011;53663;42.676;23.238;2022-12-07T04:42:03;32.50;;;17.60;;
66751;SDS011;53663;42.676;23.238;2022-12-07T04:44:29;31.65;;;16.90;;
66751;SDS011;53663;42.676;23.238;2022-12-07T04:46:55;30.25;;;16.42;;
66751;SDS011;53663;42.676;23.238;2022-12-07T04:49:22;34.58;;;16.88;;
66751;SDS011;53663;42.676;23.238;2022-12-07T04:51:49;33.45;;;16.90;;
66751;SDS011;53663;42.676;23.238;2022-12-07T04:54:15;30.33;;;17.00;;
66751;SDS011;53663;42.676;23.238;2022-12-07T04:56:42;32.90;;;16.48;;
66751;SDS011;53663;42.676;23.238;2022-12-07T04:59:07;32.95;;;15.93;;
66751;SDS011;53663;42.676;23.238;2022-12-07T05:01:35;32.55;;;16.08;;
66751;SDS011;53663;42.676;23.238;2022-12-07T05:04:00;32.63;;;15.98;;
66751;SDS011;53663;42.676;23.238;2022-12-07T05:06:26;33.58;;;16.00;;
66751;SDS011;53663;42.676;23.238;2022-12-07T05:08:52;32.55;;;16.42;;
66751;SDS011;53663;42.676;23.238;2022-12-07T05:11:17;34.67;;;16.33;;
66751;SDS011;53663;42.676;23.238;2022-12-07T05:14:02;41.25;;;17.80;;
66751;SDS011;53663;42.676;23.238;2022-12-07T05:16:29;36.58;;;17.25;;
66751;SDS011;53663;42.676;23.238;2022-12-07T05:18:54;33.45;;;17.35;;
66751;SDS011;53663;42.676;23.238;2022-12-07T05:21:20;36.63;;;18.65;;
66751;SDS011;53663;42.676;23.238;2022-12-07T05:23:46;38.78;;;21.65;;
66751;SDS011;53663;42.676;23.238;2022-12-07T05:26:12;62.25;;;33.75;;
66751;SDS011;53663;42.676;23.238;2022-12-07T05:28:37;45.80;;;22.80;;
66751;SDS011;53663;42.676;23.238;2022-12-07T05:31:03;49.63;;;21.58;;
66751;SDS011;53663;42.676;23.238;2022-12-07T05:33:28;44.17;;;20.60;;
66751;SDS011;53663;42.676;23.238;2022-12-07T05:35:54;39.47;;;22.15;;
66751;SDS011;53663;42.676;23.238;2022-12-07T05:38:19;42.55;;;22.60;;
66751;SDS011;53663;42.676;23.238;2022-12-07T05:40:45;37.55;;;18.92;;
66751;SDS011;53663;42.676;23.238;2022-12-07T05:43:10;44.65;;;20.73;;
66751;SDS011;53663;42.676;23.238;2022-12-07T05:45:36;40.35;;;18.35;;
66751;SDS011;53663;42.676;23.238;2022-12-07T05:48:02;42.53;;;20.50;;
66751;SDS011;53663;42.676;23.238;2022-12-07T05:50:27;39.33;;;19.33;;
66751;SDS011;53663;42.676;23.238;2022-12-07T05:52:59;38.88;;;20.08;;
66751;SDS011;53663;42.676;23.238;2022-12-07T05:55:25;38.08;;;18.50;;
66751;SDS011;53663;42.676;23.238;2022-12-07T05:57:50;39.40;;;20.00;;
66751;SDS011;53663;42.676;23.238;2022-12-07T06:00:35;42.72;;;18.65;;
66751;SDS011;53663;42.676;23.238;2022-12-07T06:03:00;44.65;;;20.52;;
66751;SDS011;53663;42.676;23.238;2022-12-07T06:05:26;35.83;;;18.95;;
66751;SDS011;53663;42.676;23.238;2022-12-07T06:07:51;41.80;;;19.65;;
66751;SDS011;53663;42.676;23.238;2022-12-07T06:10:17;39.38;;;21.25;;
66751;SDS011;53663;42.676;23.238;2022-12-07T06:12:42;43.10;;;20.35;;
66751;SDS011;53663;42.676;23.238;2022-12-07T06:15:10;40.72;;;20.50;;
66751;SDS011;53663;42.676;23.238;2022-12-07T06:17:38;38.45;;;19.77;;
66751;SDS011;53663;42.676;23.238;2022-12-07T06:20:03;42.72;;;19.88;;
66751;SDS011;53663;42.676;23.238;2022-12-07T06:22:29;42.17;;;20.08;;
66751;SDS011;53663;42.676;23.238;2022-12-07T06:24:55;40.63;;;20.42;;
66751;SDS011;53663;42.676;23.238;2022-12-07T06:27:20;44.88;;;19.70;;
66751;SDS011;53663;42.676;23.238;2022-12-07T06:29:46;45.35;;;21.73;;
66751;SDS011;53663;42.676;23.238;2022-12-07T06:32:12;43.15;;;21.30;;
66751;SDS011;53663;42.676;23.238;2022-12-07T06:34:37;47.40;;;22.55;;
66751;SDS011;53663;42.676;23.238;2022-12-07T06:37:03;45.45;;;22.55;;
66751;SDS011;53663;42.676;23.238;2022-12-07T06:39:28;53.15;;;23.55;;
66751;SDS011;53663;42.676;23.238;2022-12-07T06:41:54;53.00;;;22.95;;
66751;SDS011;53663;42.676;23.238;2022-12-07T06:44:20;53.28;;;23.42;;
66751;SDS011;53663;42.676;23.238;2022-12-07T06:46:47;48.35;;;22.70;;
66751;SDS011;53663;42.676;23.238;2022-12-07T06:49:13;49.88;;;22.83;;
66751;SDS011;53663;42.676;23.238;2022-12-07T06:51:38;50.33;;;23.48;;
66751;SDS011;53663;42.676;23.238;2022-12-07T06:54:09;46.25;;;22.20;;
66751;SDS011;53663;42.676;23.238;2022-12-07T06:56:36;45.92;;;21.48;;
66751;SDS011;53663;42.676;23.238;2022-12-07T06:59:02;51.47;;;21.30;;
66751;SDS011;53663;42.676;23.238;2022-12-07T07:01:28;44.78;;;21.40;;
66751;SDS011;53663;42.676;23.238;2022-12-07T07:03:54;43.22;;;20.85;;
66751;SDS011;53663;42.676;23.238;2022-12-07T07:06:20;47.80;;;22.20;;
66751;SDS011;53663;42.676;23.238;2022-12-07T07:08:45;47.35;;;20.88;;
66751;SDS011;53663;42.676;23.238;2022-12-07T07:11:11;45.50;;;21.30;;
66751;SDS011;53663;42.676;23.238;2022-12-07T07:13:37;43.75;;;20.88;;
66751;SDS011;53663;42.676;23.238;2022-12-07T07:16:02;49.35;;;21.30;;
66751;SDS011;53663;42.676;23.238;2022-12-07T07:18:28;40.83;;;20.95;;
66751;SDS011;53663;42.676;23.238;2022-12-07T07:20:54;50.83;;;22.35;;
66751;SDS011;53663;42.676;23.238;2022-12-07T07:23:20;47.15;;;23.33;;
66751;SDS011;53663;42.676;23.238;2022-12-07T07:25:46;62.17;;;23.63;;
66751;SDS011;53663;42.676;23.238;2022-12-07T07:28:12;45.13;;;21.10;;
66751;SDS011;53663;42.676;23.238;2022-12-07T07:30:38;52.53;;;22.20;;
66751;SDS011;53663;42.676;23.238;2022-12-07T07:33:04;55.42;;;23.88;;
66751;SDS011;53663;42.676;23.238;2022-12-07T07:35:30;50.65;;;21.58;;
66751;SDS011;53663;42.676;23.238;2022-12-07T07:37:57;49.13;;;22.55;;
66751;SDS011;53663;42.676;23.238;2022-12-07T07:40:23;53.00;;;22.95;;
66751;SDS011;53663;42.676;23.238;2022-12-07T07:42:52;48.63;;;23.63;;
66751;SDS011;53663;42.676;23.238;2022-12-07T07:45:19;47.63;;;22.90;;
66751;SDS011;53663;42.676;23.238;2022-12-07T07:47:46;53.08;;;24.33;;
66751;SDS011;53663;42.676;23.238;2022-12-07T07:50:12;50.67;;;25.42;;
66751;SDS011;53663;42.676;23.238;2022-12-07T07:52:37;56.85;;;24.83;;
66751;SDS011;53663;42.676;23.238;2022-12-07T07:55:03;50.88;;;25.80;;
66751;SDS011;53663;42.676;23.238;2022-12-07T07:57:29;58.78;;;26.55;;
66751;SDS011;53663;42.676;23.238;2022-12-07T07:59:54;50.50;;;25.65;;
66751;SDS011;53663;42.676;23.238;2022-12-07T08:02:20;53.20;;;25.05;;
66751;SDS011;53663;42.676;23.238;2022-12-07T08:04:47;45.15;;;24.88;;
66751;SDS011;53663;42.676;23.238;2022-12-07T08:07:13;69.70;;;27.50;;
66751;SDS011;53663;42.676;23.238;2022-12-07T08:09:39;52.65;;;25.83;;
66751;SDS011;53663;42.676;23.238;2022-12-07T08:12:05;59.50;;;25.50;;
66751;SDS011;53663;42.676;23.238;2022-12-07T08:14:31;57.67;;;26.95;;
66751;SDS011;53663;42.676;23.238;2022-12-07T08:16:57;48.58;;;25.90;;
66751;SDS011;53663;42.676;23.238;2022-12-07T08:19:23;54.80;;;25.88;;
66751;SDS011;53663;42.676;23.238;2022-12-07T08:21:48;46.30;;;24.42;;
66751;SDS011;53663;42.676;23.238;2022-12-07T08:24:14;54.70;;;25.63;;
66751;SDS011;53663;42.676;23.238;2022-12-07T08:26:40;51.72;;;25.00;;
66751;SDS011;53663;42.676;23.238;2022-12-07T08:29:06;52.03;;;23.65;;
66751;SDS011;53663;42.676;23.238;2022-12-07T08:31:32;52.85;;;24.42;;
66751;SDS011;53663;42.676;23.238;2022-12-07T08:33:57;56.28;;;25.70;;
66751;SDS011;53663;42.676;23.238;2022-12-07T08:36:23;53.88;;;25.90;;
66751;SDS011;53663;42.676;23.238;2022-12-07T08:38:49;80.55;;;44.55;;
66751;SDS011;53663;42.676;23.238;2022-12-07T08:41:15;65.55;;;34.55;;
66751;SDS011;53663;42.676;23.238;2022-12-07T08:43:42;55.40;;;26.42;;
66751;SDS011;53663;42.676;23.238;2022-12-07T08:49:01;65.85;;;27.83;;
66751;SDS011;53663;42.676;23.238;2022-12-07T08:51:28;56.63;;;27.70;;
66751;SDS011;53663;42.676;23.238;2022-12-07T08:53:54;61.70;;;28.45;;
66751;SDS011;53663;42.676;23.238;2022-12-07T08:56:21;52.95;;;28.00;;
66751;SDS011;53663;42.676;23.238;2022-12-07T08:58:47;56.08;;;27.20;;
66751;SDS011;53663;42.676;23.238;2022-12-07T09:01:13;63.50;;;28.30;;
66751;SDS011;53663;42.676;23.238;2022-12-07T09:03:39;62.53;;;28.27;;
66751;SDS011;53663;42.676;23.238;2022-12-07T09:06:05;64.60;;;29.90;;
66751;SDS011;53663;42.676;23.238;2022-12-07T09:08:32;51.42;;;24.40;;
66751;SDS011;53663;42.676;23.238;2022-12-07T09:11:01;57.63;;;27.33;;
66751;SDS011;53663;42.676;23.238;2022-12-07T09:13:27;61.63;;;28.42;;
66751;SDS011;53663;42.676;23.238;2022-12-07T09:15:52;55.95;;;27.25;;
66751;SDS011;53663;42.676;23.238;2022-12-07T09:18:18;54.42;;;27.27;;
66751;SDS011;53663;42.676;23.238;2022-12-07T09:20:43;47.55;;;23.42;;
66751;SDS011;53663;42.676;23.238;2022-12-07T09:23:09;50.05;;;25.63;;
66751;SDS011;53663;42.676;23.238;2022-12-07T09:25:34;47.83;;;24.35;;
66751;SDS011;53663;42.676;23.238;2022-12-07T09:28:00;63.08;;;27.58;;
66751;SDS011;53663;42.676;23.238;2022-12-07T09:30:26;49.85;;;25.15;;
66751;SDS011;53663;42.676;23.238;2022-12-07T09:32:53;48.00;;;22.88;;
66751;SDS011;53663;42.676;23.238;2022-12-07T09:35:19;58.47;;;24.70;;
66751;SDS011;53663;42.676;23.238;2022-12-07T09:37:44;48.85;;;25.88;;
66751;SDS011;53663;42.676;23.238;2022-12-07T09:40:11;46.67;;;24.17;;
66751;SDS011;53663;42.676;23.238;2022-12-07T09:42:38;53.20;;;25.15;;
66751;SDS011;53663;42.676;23.238;2022-12-07T09:45:07;61.00;;;25.80;;
66751;SDS011;53663;42.676;23.238;2022-12-07T09:47:38;51.55;;;24.42;;
66751;SDS011;53663;42.676;23.238;2022-12-07T09:50:05;58.92;;;25.63;;
66751;SDS011;53663;42.676;23.238;2022-12-07T09:52:37;50.30;;;23.15;;
66751;SDS011;53663;42.676;23.238;2022-12-07T09:55:02;42.05;;;22.60;;
66751;SDS011;53663;42.676;23.238;2022-12-07T09:57:29;44.53;;;21.52;;
66751;SDS011;53663;42.676;23.238;2022-12-07T09:59:59;50.78;;;23.15;;
66751;SDS011;53663;42.676;23.238;2022-12-07T10:02:40;45.85;;;23.85;;
66751;SDS011;53663;42.676;23.238;2022-12-07T10:05:11;56.42;;;26.95;;
66751;SDS011;53663;42.676;23.238;2022-12-07T10:07:41;47.45;;;19.52;;
66751;SDS011;53663;42.676;23.238;2022-12-07T10:10:14;42.53;;;20.60;;
66751;SDS011;53663;42.676;23.238;2022-12-07T10:15:23;35.95;;;17.25;;
66751;SDS011;53663;42.676;23.238;2022-12-07T10:18:16;39.25;;;18.92;;
66751;SDS011;53663;42.676;23.238;2022-12-07T10:20:50;37.92;;;19.05;;
66751;SDS011;53663;42.676;23.238;2022-12-07T10:23:37;46.75;;;22.70;;
66751;SDS011;53663;42.676;23.238;2022-12-07T10:28:54;34.83;;;18.52;;
66751;SDS011;53663;42.676;23.238;2022-12-07T10:31:21;49.58;;;20.02;;
66751;SDS011;53663;42.676;23.238;2022-12-07T10:33:49;36.08;;;18.02;;
66751;SDS011;53663;42.676;23.238;2022-12-07T10:36:33;43.70;;;18.67;;
66751;SDS011;53663;42.676;23.238;2022-12-07T10:39:03;39.45;;;19.25;;
66751;SDS011;53663;42.676;23.238;2022-12-07T10:41:56;42.25;;;17.88;;
66751;SDS011;53663;42.676;23.238;2022-12-07T10:44:26;45.70;;;17.92;;
66751;SDS011;53663;42.676;23.238;2022-12-07T10:54:52;29.23;;;14.68;;
66751;SDS011;53663;42.676;23.238;2022-12-07T11:00:24;28.30;;;14.80;;
66751;SDS011;53663;42.676;23.238;2022-12-07T11:11:36;36.22;;;14.52;;
66751;SDS011;53663;42.676;23.238;2022-12-07T11:16:49;36.03;;;16.13;;
66751;SDS011;53663;42.676;23.238;2022-12-07T11:22:13;29.30;;;14.07;;
66751;SDS011;53663;42.676;23.238;2022-12-07T11:25:02;31.90;;;15.90;;
66751;SDS011;53663;42.676;23.238;2022-12-07T11:30:28;29.52;;;15.50;;
66751;SDS011;53663;42.676;23.238;2022-12-07T11:38:22;32.05;;;14.85;;
66751;SDS011;53663;42.676;23.238;2022-12-07T11:40:54;28.38;;;14.10;;
66751;SDS011;53663;42.676;23.238;2022-12-07T11:43:37;29.55;;;14.30;;
66751;SDS011;53663;42.676;23.238;2022-12-07T11:46:18;32.88;;;14.60;;
66751;SDS011;53663;42.676;23.238;2022-12-07T11:48:51;37.00;;;15.10;;
66751;SDS011;53663;42.676;23.238;2022-12-07T11:51:43;34.90;;;14.45;;
66751;SDS011;53663;42.676;23.238;2022-12-07T11:54:17;33.97;;;15.68;;
66751;SDS011;53663;42.676;23.238;2022-12-07T11:56:49;28.15;;;14.85;;
66751;SDS011;53663;42.676;23.238;2022-12-07T11:59:18;29.05;;;13.40;;
66751;SDS011;53663;42.676;23.238;2022-12-07T12:01:56;33.05;;;14.68;;
66751;SDS011;53663;42.676;23.238;2022-12-07T12:06:54;29.38;;;15.23;;
66751;SDS011;53663;42.676;23.238;2022-12-07T12:22:47;34.58;;;15.68;;
66751;SDS011;53663;42.676;23.238;2022-12-07T12:25:24;31.42;;;14.95;;
66751;SDS011;53663;42.676;23.238;2022-12-07T12:27:53;42.67;;;15.27;;
66751;SDS011;53663;42.676;23.238;2022-12-07T12:30:37;39.38;;;14.60;;
66751;SDS011;53663;42.676;23.238;2022-12-07T12:44:01;30.10;;;13.88;;
66751;SDS011;53663;42.676;23.238;2022-12-07T12:54:25;27.92;;;13.60;;
66751;SDS011;53663;42.676;23.238;2022-12-07T13:01:47;20.30;;;10.02;;
66751;SDS011;53663;42.676;23.238;2022-12-07T13:04:18;28.60;;;11.38;;
66751;SDS011;53663;42.676;23.238;2022-12-07T13:06:52;21.40;;;9.23;;
66751;SDS011;53663;42.676;23.238;2022-12-07T13:09:19;24.42;;;11.27;;
66751;SDS011;53663;42.676;23.238;2022-12-07T13:12:05;23.17;;;12.40;;
66751;SDS011;53663;42.676;23.238;2022-12-07T13:20:05;43.05;;;18.60;;
66751;SDS011;53663;42.676;23.238;2022-12-07T13:27:48;27.45;;;14.75;;
66751;SDS011;53663;42.676;23.238;2022-12-07T13:30:21;23.45;;;13.55;;
66751;SDS011;53663;42.676;23.238;2022-12-07T13:32:53;28.52;;;13.55;;
66751;SDS011;53663;42.676;23.238;2022-12-07T13:35:28;29.80;;;13.93;;
66751;SDS011;53663;42.676;23.238;2022-12-07T13:37:53;29.30;;;14.32;;
66751;SDS011;53663;42.676;23.238;2022-12-07T13:40:20;27.40;;;14.25;;
66751;SDS011;53663;42.676;23.238;2022-12-07T13:42:46;28.27;;;14.70;;
66751;SDS011;53663;42.676;23.238;2022-12-07T13:45:22;25.95;;;13.90;;
66751;SDS011;53663;42.676;23.238;2022-12-07T13:48:33;26.63;;;13.13;;
66751;SDS011;53663;42.676;23.238;2022-12-07T13:51:00;29.83;;;14.30;;
66751;SDS011;53663;42.676;23.238;2022-12-07T13:53:27;40.70;;;14.80;;
66751;SDS011;53663;42.676;23.238;2022-12-07T13:55:55;33.22;;;15.57;;
66751;SDS011;53663;42.676;23.238;2022-12-07T13:58:23;40.45;;;15.73;;
66751;SDS011;53663;42.676;23.238;2022-12-07T14:00:49;34.97;;;15.52;;
66751;SDS011;53663;42.676;23.238;2022-12-07T14:05:41;39.15;;;16.42;;
66751;SDS011;53663;42.676;23.238;2022-12-07T14:10:41;30.60;;;15.63;;
66751;SDS011;53663;42.676;23.238;2022-12-07T14:15:54;24.00;;;11.98;;
66751;SDS011;53663;42.676;23.238;2022-12-07T14:18:30;24.27;;;12.75;;
66751;SDS011;53663;42.676;23.238;2022-12-07T14:23:36;32.97;;;12.57;;
66751;SDS011;53663;42.676;23.238;2022-12-07T14:26:19;29.45;;;11.93;;
66751;SDS011;53663;42.676;23.238;2022-12-07T14:28:45;25.38;;;13.18;;
66751;SDS011;53663;42.676;23.238;2022-12-07T14:31:15;23.25;;;13.15;;
66751;SDS011;53663;42.676;23.238;2022-12-07T14:33:42;33.03;;;13.70;;
66751;SDS011;53663;42.676;23.238;2022-12-07T14:36:11;29.83;;;12.63;;
66751;SDS011;53663;42.676;23.238;2022-12-07T14:38:38;34.63;;;13.80;;
66751;SDS011;53663;42.676;23.238;2022-12-07T14:41:06;39.83;;;16.08;;
66751;SDS011;53663;42.676;23.238;2022-12-07T14:43:57;36.42;;;17.20;;
66751;SDS011;53663;42.676;23.238;2022-12-07T14:46:23;52.88;;;20.85;;
66751;SDS011;53663;42.676;23.238;2022-12-07T14:48:49;39.40;;;19.42;;
66751;SDS011;53663;42.676;23.238;2022-12-07T14:51:15;47.35;;;20.38;;
66751;SDS011;53663;42.676;23.238;2022-12-07T14:53:42;49.00;;;20.27;;
66751;SDS011;53663;42.676;23.238;2022-12-07T14:56:11;55.45;;;24.25;;
66751;SDS011;53663;42.676;23.238;2022-12-07T14:58:36;51.25;;;24.05;;
66751;SDS011;53663;42.676;23.238;2022-12-07T15:01:02;51.92;;;24.27;;
66751;SDS011;53663;42.676;23.238;2022-12-07T15:03:27;49.08;;;25.10;;
66751;SDS011;53663;42.676;23.238;2022-12-07T15:05:53;55.90;;;21.48;;
66751;SDS011;53663;42.676;23.238;2022-12-07T15:08:19;38.15;;;18.45;;
66751;SDS011;53663;42.676;23.238;2022-12-07T15:10:44;37.25;;;16.63;;
66751;SDS011;53663;42.676;23.238;2022-12-07T15:13:10;31.27;;;15.13;;
66751;SDS011;53663;42.676;23.238;2022-12-07T15:15:54;30.50;;;14.60;;
66751;SDS011;53663;42.676;23.238;2022-12-07T15:18:20;33.05;;;16.27;;
66751;SDS011;53663;42.676;23.238;2022-12-07T15:20:48;29.17;;;13.10;;
66751;SDS011;53663;42.676;23.238;2022-12-07T15:23:14;31.73;;;10.65;;
66751;SDS011;53663;42.676;23.238;2022-12-07T15:25:40;16.83;;;9.02;;
66751;SDS011;53663;42.676;23.238;2022-12-07T15:28:07;24.30;;;9.98;;
66751;SDS011;53663;42.676;23.238;2022-12-07T15:30:33;23.13;;;11.02;;
66751;SDS011;53663;42.676;23.238;2022-12-07T15:32:58;26.13;;;11.50;;
66751;SDS011;53663;42.676;23.238;2022-12-07T15:35:24;25.83;;;11.45;;
66751;SDS011;53663;42.676;23.238;2022-12-07T15:37:49;35.42;;;15.88;;
66751;SDS011;53663;42.676;23.238;2022-12-07T15:40:15;29.42;;;14.13;;
66751;SDS011;53663;42.676;23.238;2022-12-07T15:42:40;33.30;;;14.10;;
66751;SDS011;53663;42.676;23.238;2022-12-07T15:45:06;34.42;;;15.10;;
66751;SDS011;53663;42.676;23.238;2022-12-07T15:47:37;35.80;;;15.45;;
66751;SDS011;53663;42.676;23.238;2022-12-07T15:50:07;35.03;;;15.15;;
66751;SDS011;53663;42.676;23.238;2022-12-07T15:52:34;37.67;;;16.30;;
66751;SDS011;53663;42.676;23.238;2022-12-07T15:55:01;33.17;;;16.50;;
66751;SDS011;53663;42.676;23.238;2022-12-07T15:57:28;36.60;;;16.15;;
66751;SDS011;53663;42.676;23.238;2022-12-07T15:59:55;36.38;;;18.02;;
66751;SDS011;53663;42.676;23.238;2022-12-07T16:02:20;41.72;;;17.77;;
66751;SDS011;53663;42.676;23.238;2022-12-07T16:04:47;41.67;;;18.73;;
66751;SDS011;53663;42.676;23.238;2022-12-07T16:07:13;38.05;;;19.83;;
66751;SDS011;53663;42.676;23.238;2022-12-07T16:09:41;43.22;;;20.30;;
66751;SDS011;53663;42.676;23.238;2022-12-07T16:12:07;43.92;;;18.98;;
66751;SDS011;53663;42.676;23.238;2022-12-07T16:14:32;39.70;;;17.67;;
66751;SDS011;53663;42.676;23.238;2022-12-07T16:16:58;31.55;;;15.05;;
66751;SDS011;53663;42.676;23.238;2022-12-07T16:19:24;35.17;;;18.63;;